sensor_id;sensor_type;location;lat;lon;timestamp;temperature;humidity
13482;DHT22;6813;60.352;15.746;2023-07-16T00:02:04;16.60;99.90
13482;DHT22;6813;60.352;15.746;2023-07-16T00:04:31;16.70;99.90
13482;DHT22;6813;60.352;15.746;2023-07-16T00:06:56;16.60;99.90
13482;DHT22;6813;60.352;15.746;2023-07-16T00:09:22;16.60;99.90
13482;DHT22;6813;60.352;15.746;2023-07-16T00:11:49;16.50;99.90
13482;DHT22;6813;60.352;15.746;2023-07-16T00:14:15;16.50;99.90
13482;DHT22;6813;60.352;15.746;2023-07-16T00:16:40;16.40;99.90
13482;DHT22;6813;60.352;15.746;2023-07-16T00:19:06;16.30;99.90
13482;DHT22;6813;60.352;15.746;2023-07-16T00:21:32;16.20;99.90
13482;DHT22;6813;60.352;15.746;2023-07-16T00:23:58;16.20;99.90
13482;DHT22;6813;60.352;15.746;2023-07-16T00:26:24;16.00;99.90
13482;DHT22;6813;60.352;15.746;2023-07-16T00:28:50;15.90;99.90
13482;DHT22;6813;60.352;15.746;2023-07-16T00:31:15;15.70;99.90
13482;DHT22;6813;60.352;15.746;2023-07-16T00:33:41;15.70;99.90
13482;DHT22;6813;60.352;15.746;2023-07-16T00:36:07;15.60;99.90
13482;DHT22;6813;60.352;15.746;2023-07-16T00:38:32;15.60;99.90
13482;DHT22;6813;60.352;15.746;2023-07-16T00:40:58;15.40;99.90
13482;DHT22;6813;60.352;15.746;2023-07-16T00:43:23;15.40;99.90
13482;DHT22;6813;60.352;15.746;2023-07-16T00:45:49;15.30;99.90
13482;DHT22;6813;60.352;15.746;2023-07-16T00:48:15;15.20;99.90
13482;DHT22;6813;60.352;15.746;2023-07-16T00:50:41;15.10;99.90
13482;DHT22;6813;60.352;15.746;2023-07-16T00:53:08;15.00;99.90
13482;DHT22;6813;60.352;15.746;2023-07-16T00:55:36;14.90;99.90
13482;DHT22;6813;60.352;15.746;2023-07-16T00:58:04;14.90;99.90
13482;DHT22;6813;60.352;15.746;2023-07-16T01:00:38;14.80;99.90
13482;DHT22;6813;60.352;15.746;2023-07-16T01:03:10;14.70;99.90
13482;DHT22;6813;60.352;15.746;2023-07-16T01:06:16;14.60;99.90
13482;DHT22;6813;60.352;15.746;2023-07-16T01:08:57;14.60;99.90
13482;DHT22;6813;60.352;15.746;2023-07-16T01:11:23;14.50;99.90
13482;DHT22;6813;60.352;15.746;2023-07-16T01:13:50;14.50;99.90
13482;DHT22;6813;60.352;15.746;2023-07-16T01:16:20;14.50;99.90
13482;DHT22;6813;60.352;15.746;2023-07-16T01:18:47;14.50;99.90
13482;DHT22;6813;60.352;15.746;2023-07-16T01:21:13;14.40;99.90
13482;DHT22;6813;60.352;15.746;2023-07-16T01:29:44;14.40;99.90
13482;DHT22;6813;60.352;15.746;2023-07-16T01:32:11;14.40;99.90
13482;DHT22;6813;60.352;15.746;2023-07-16T01:34:38;14.50;99.90
13482;DHT22;6813;60.352;15.746;2023-07-16T01:37:05;14.50;99.90
13482;DHT22;6813;60.352;15.746;2023-07-16T01:39:31;14.50;99.90
13482;DHT22;6813;60.352;15.746;2023-07-16T01:41:58;14.50;99.90
13482;DHT22;6813;60.352;15.746;2023-07-16T01:44:24;14.50;99.90
13482;DHT22;6813;60.352;15.746;2023-07-16T01:47:12;14.60;99.90
13482;DHT22;6813;60.352;15.746;2023-07-16T01:49:39;14.60;99.90
13482;DHT22;6813;60.352;15.746;2023-07-16T01:52:07;14.60;99.90
13482;DHT22;6813;60.352;15.746;2023-07-16T01:54:36;14.60;99.90
13482;DHT22;6813;60.352;15.746;2023-07-16T01:57:02;14.70;99.90
13482;DHT22;6813;60.352;15.746;2023-07-16T01:59:28;14.60;99.90
13482;DHT22;6813;60.352;15.746;2023-07-16T02:01:54;14.60;99.90
13482;DHT22;6813;60.352;15.746;2023-07-16T02:04:20;14.70;99.90
13482;DHT22;6813;60.352;15.746;2023-07-16T02:06:45;14.70;99.90
13482;DHT22;6813;60.352;15.746;2023-07-16T02:09:13;14.70;99.90
13482;DHT22;6813;60.352;15.746;2023-07-16T02:11:39;14.70;99.90
13482;DHT22;6813;60.352;15.746;2023-07-16T02:14:04;14.80;99.90
13482;DHT22;6813;60.352;15.746;2023-07-16T02:16:30;14.80;99.90
13482;DHT22;6813;60.352;15.746;2023-07-16T02:18:56;14.80;99.90
13482;DHT22;6813;60.352;15.746;2023-07-16T02:21:21;14.90;99.90
13482;DHT22;6813;60.352;15.746;2023-07-16T02:23:47;14.90;99.90
13482;DHT22;6813;60.352;15.746;2023-07-16T02:26:13;14.90;99.90
13482;DHT22;6813;60.352;15.746;2023-07-16T02:28:38;14.80;99.90
13482;DHT22;6813;60.352;15.746;2023-07-16T02:31:05;14.80;99.90
13482;DHT22;6813;60.352;15.746;2023-07-16T02:33:30;14.80;99.90
13482;DHT22;6813;60.352;15.746;2023-07-16T02:35:56;14.70;99.90
13482;DHT22;6813;60.352;15.746;2023-07-16T02:38:22;14.70;99.90
13482;DHT22;6813;60.352;15.746;2023-07-16T02:40:48;14.70;99.90
13482;DHT22;6813;60.352;15.746;2023-07-16T02:43:14;14.70;99.90
13482;DHT22;6813;60.352;15.746;2023-07-16T02:45:40;14.70;99.90
13482;DHT22;6813;60.352;15.746;2023-07-16T02:48:06;14.70;99.90
13482;DHT22;6813;60.352;15.746;2023-07-16T02:50:36;14.60;99.90
13482;DHT22;6813;60.352;15.746;2023-07-16T02:53:06;14.60;99.90
13482;DHT22;6813;60.352;15.746;2023-07-16T02:55:34;14.60;99.90
13482;DHT22;6813;60.352;15.746;2023-07-16T02:58:00;14.60;99.90
13482;DHT22;6813;60.352;15.746;2023-07-16T03:00:30;14.60;99.90
13482;DHT22;6813;60.352;15.746;2023-07-16T03:02:55;14.70;99.90
13482;DHT22;6813;60.352;15.746;2023-07-16T03:05:21;14.60;99.90
13482;DHT22;6813;60.352;15.746;2023-07-16T03:07:47;14.70;99.90
13482;DHT22;6813;60.352;15.746;2023-07-16T03:10:12;14.70;99.90
13482;DHT22;6813;60.352;15.746;2023-07-16T03:12:38;14.70;99.90
13482;DHT22;6813;60.352;15.746;2023-07-16T03:15:04;14.70;99.90
13482;DHT22;6813;60.352;15.746;2023-07-16T03:17:30;14.70;99.90
13482;DHT22;6813;60.352;15.746;2023-07-16T03:19:55;14.80;99.90
13482;DHT22;6813;60.352;15.746;2023-07-16T03:22:21;14.70;99.90
13482;DHT22;6813;60.352;15.746;2023-07-16T03:24:47;14.70;99.90
13482;DHT22;6813;60.352;15.746;2023-07-16T03:27:12;14.80;99.90
13482;DHT22;6813;60.352;15.746;2023-07-16T03:29:38;14.70;99.90
13482;DHT22;6813;60.352;15.746;2023-07-16T03:32:04;14.70;99.90
13482;DHT22;6813;60.352;15.746;2023-07-16T03:34:29;14.60;99.90
13482;DHT22;6813;60.352;15.746;2023-07-16T03:36:55;14.60;99.90
13482;DHT22;6813;60.352;15.746;2023-07-16T03:39:21;14.60;99.90
13482;DHT22;6813;60.352;15.746;2023-07-16T03:41:46;14.60;99.90
13482;DHT22;6813;60.352;15.746;2023-07-16T03:44:12;14.70;99.90
13482;DHT22;6813;60.352;15.746;2023-07-16T03:46:38;14.70;99.90
13482;DHT22;6813;60.352;15.746;2023-07-16T03:49:07;14.70;99.90
13482;DHT22;6813;60.352;15.746;2023-07-16T03:51:33;14.70;99.90
13482;DHT22;6813;60.352;15.746;2023-07-16T03:53:58;14.80;99.90
13482;DHT22;6813;60.352;15.746;2023-07-16T03:56:24;14.80;99.90
13482;DHT22;6813;60.352;15.746;2023-07-16T03:58:50;14.90;99.90
13482;DHT22;6813;60.352;15.746;2023-07-16T04:01:15;14.80;99.90
13482;DHT22;6813;60.352;15.746;2023-07-16T04:03:41;14.80;99.90
13482;DHT22;6813;60.352;15.746;2023-07-16T04:06:08;14.90;99.90
13482;DHT22;6813;60.352;15.746;2023-07-16T04:08:37;14.80;99.90
13482;DHT22;6813;60.352;15.746;2023-07-16T04:11:04;14.90;99.90
13482;DHT22;6813;60.352;15.746;2023-07-16T04:13:31;14.90;99.90
13482;DHT22;6813;60.352;15.746;2023-07-16T04:15:57;15.00;99.90
13482;DHT22;6813;60.352;15.746;2023-07-16T04:18:24;15.00;99.90
13482;DHT22;6813;60.352;15.746;2023-07-16T04:20:50;15.10;99.90
13482;DHT22;6813;60.352;15.746;2023-07-16T04:23:15;15.10;99.90
13482;DHT22;6813;60.352;15.746;2023-07-16T04:25:41;15.10;99.90
13482;DHT22;6813;60.352;15.746;2023-07-16T04:28:07;15.20;99.90
13482;DHT22;6813;60.352;15.746;2023-07-16T04:30:33;15.30;99.90
13482;DHT22;6813;60.352;15.746;2023-07-16T04:32:58;15.30;99.90
13482;DHT22;6813;60.352;15.746;2023-07-16T04:35:24;15.30;99.90
13482;DHT22;6813;60.352;15.746;2023-07-16T04:37:50;15.40;99.90
13482;DHT22;6813;60.352;15.746;2023-07-16T04:40:15;15.40;99.90
13482;DHT22;6813;60.352;15.746;2023-07-16T04:42:41;15.40;99.90
13482;DHT22;6813;60.352;15.746;2023-07-16T04:45:07;15.40;99.90
13482;DHT22;6813;60.352;15.746;2023-07-16T04:47:33;15.40;99.90
13482;DHT22;6813;60.352;15.746;2023-07-16T04:49:59;15.50;99.90
13482;DHT22;6813;60.352;15.746;2023-07-16T04:52:25;15.50;99.90
13482;DHT22;6813;60.352;15.746;2023-07-16T04:54:50;15.50;99.90
13482;DHT22;6813;60.352;15.746;2023-07-16T04:57:16;15.60;99.90
13482;DHT22;6813;60.352;15.746;2023-07-16T04:59:42;15.70;99.90
13482;DHT22;6813;60.352;15.746;2023-07-16T05:02:07;15.70;99.90
13482;DHT22;6813;60.352;15.746;2023-07-16T05:04:34;15.70;99.90
13482;DHT22;6813;60.352;15.746;2023-07-16T05:07:02;15.80;99.90
13482;DHT22;6813;60.352;15.746;2023-07-16T05:09:28;15.80;99.90
13482;DHT22;6813;60.352;15.746;2023-07-16T05:11:53;15.90;99.90
13482;DHT22;6813;60.352;15.746;2023-07-16T05:14:19;15.90;99.90
13482;DHT22;6813;60.352;15.746;2023-07-16T05:16:45;16.00;99.90
13482;DHT22;6813;60.352;15.746;2023-07-16T05:19:10;16.00;99.90
13482;DHT22;6813;60.352;15.746;2023-07-16T05:21:36;16.00;99.90
13482;DHT22;6813;60.352;15.746;2023-07-16T05:24:02;16.10;99.90
13482;DHT22;6813;60.352;15.746;2023-07-16T05:26:28;16.10;99.90
13482;DHT22;6813;60.352;15.746;2023-07-16T05:28:54;16.10;99.90
13482;DHT22;6813;60.352;15.746;2023-07-16T05:31:19;16.10;99.90
13482;DHT22;6813;60.352;15.746;2023-07-16T05:33:45;16.10;99.90
13482;DHT22;6813;60.352;15.746;2023-07-16T05:36:11;16.10;99.90
13482;DHT22;6813;60.352;15.746;2023-07-16T05:38:36;16.20;99.90
13482;DHT22;6813;60.352;15.746;2023-07-16T05:41:04;16.20;99.90
13482;DHT22;6813;60.352;15.746;2023-07-16T05:43:31;16.10;99.90
13482;DHT22;6813;60.352;15.746;2023-07-16T05:45:56;16.10;99.90
13482;DHT22;6813;60.352;15.746;2023-07-16T05:48:23;16.10;99.90
13482;DHT22;6813;60.352;15.746;2023-07-16T05:50:48;16.10;99.90
13482;DHT22;6813;60.352;15.746;2023-07-16T05:53:14;16.10;99.90
13482;DHT22;6813;60.352;15.746;2023-07-16T05:55:40;16.00;99.90
13482;DHT22;6813;60.352;15.746;2023-07-16T05:58:06;16.10;99.90
13482;DHT22;6813;60.352;15.746;2023-07-16T06:00:32;16.10;99.90
13482;DHT22;6813;60.352;15.746;2023-07-16T06:02:58;16.10;99.90
13482;DHT22;6813;60.352;15.746;2023-07-16T06:05:23;16.10;99.90
13482;DHT22;6813;60.352;15.746;2023-07-16T06:07:51;16.10;99.90
13482;DHT22;6813;60.352;15.746;2023-07-16T06:10:17;16.20;99.90
13482;DHT22;6813;60.352;15.746;2023-07-16T06:12:43;16.10;99.90
13482;DHT22;6813;60.352;15.746;2023-07-16T06:15:09;16.20;99.90
13482;DHT22;6813;60.352;15.746;2023-07-16T06:17:35;16.30;99.90
13482;DHT22;6813;60.352;15.746;2023-07-16T06:20:02;16.20;99.90
13482;DHT22;6813;60.352;15.746;2023-07-16T06:22:28;16.20;99.90
13482;DHT22;6813;60.352;15.746;2023-07-16T06:24:54;16.10;99.90
13482;DHT22;6813;60.352;15.746;2023-07-16T06:27:19;16.10;99.90
13482;DHT22;6813;60.352;15.746;2023-07-16T06:29:45;16.20;99.90
13482;DHT22;6813;60.352;15.746;2023-07-16T06:32:11;16.20;99.90
13482;DHT22;6813;60.352;15.746;2023-07-16T06:34:36;16.20;99.90
13482;DHT22;6813;60.352;15.746;2023-07-16T06:37:02;16.20;99.90
13482;DHT22;6813;60.352;15.746;2023-07-16T06:39:28;16.30;99.90
13482;DHT22;6813;60.352;15.746;2023-07-16T06:41:53;16.20;99.90
13482;DHT22;6813;60.352;15.746;2023-07-16T06:44:19;16.30;99.90
13482;DHT22;6813;60.352;15.746;2023-07-16T06:46:45;16.30;99.90
13482;DHT22;6813;60.352;15.746;2023-07-16T06:49:10;16.30;99.90
13482;DHT22;6813;60.352;15.746;2023-07-16T06:51:36;16.20;99.90
13482;DHT22;6813;60.352;15.746;2023-07-16T06:54:02;16.20;99.90
13482;DHT22;6813;60.352;15.746;2023-07-16T06:56:28;16.30;99.90
13482;DHT22;6813;60.352;15.746;2023-07-16T06:58:53;16.40;99.90
13482;DHT22;6813;60.352;15.746;2023-07-16T07:01:19;16.40;99.90
13482;DHT22;6813;60.352;15.746;2023-07-16T07:03:45;16.50;99.90
13482;DHT22;6813;60.352;15.746;2023-07-16T07:06:10;16.50;99.90
13482;DHT22;6813;60.352;15.746;2023-07-16T07:08:36;16.50;99.90
13482;DHT22;6813;60.352;15.746;2023-07-16T07:11:03;16.50;99.90
13482;DHT22;6813;60.352;15.746;2023-07-16T07:13:29;16.50;99.90
13482;DHT22;6813;60.352;15.746;2023-07-16T07:15:55;16.50;99.90
13482;DHT22;6813;60.352;15.746;2023-07-16T07:18:21;16.50;99.90
13482;DHT22;6813;60.352;15.746;2023-07-16T07:20:47;16.50;99.90
13482;DHT22;6813;60.352;15.746;2023-07-16T07:23:14;16.50;99.90
13482;DHT22;6813;60.352;15.746;2023-07-16T07:25:40;16.50;99.90
13482;DHT22;6813;60.352;15.746;2023-07-16T07:28:06;16.50;99.90
13482;DHT22;6813;60.352;15.746;2023-07-16T07:30:32;16.50;99.90
13482;DHT22;6813;60.352;15.746;2023-07-16T07:32:58;16.50;99.90
13482;DHT22;6813;60.352;15.746;2023-07-16T07:35:23;16.60;99.90
13482;DHT22;6813;60.352;15.746;2023-07-16T07:37:49;16.60;99.90
13482;DHT22;6813;60.352;15.746;2023-07-16T07:40:15;16.60;99.90
13482;DHT22;6813;60.352;15.746;2023-07-16T07:42:41;16.80;99.90
13482;DHT22;6813;60.352;15.746;2023-07-16T07:45:07;16.90;99.90
13482;DHT22;6813;60.352;15.746;2023-07-16T07:47:32;16.90;99.90
13482;DHT22;6813;60.352;15.746;2023-07-16T07:49:58;16.70;99.90
13482;DHT22;6813;60.352;15.746;2023-07-16T07:52:24;16.80;99.90
13482;DHT22;6813;60.352;15.746;2023-07-16T07:54:49;16.90;99.90
13482;DHT22;6813;60.352;15.746;2023-07-16T07:57:15;17.00;99.90
13482;DHT22;6813;60.352;15.746;2023-07-16T07:59:41;17.10;99.90
13482;DHT22;6813;60.352;15.746;2023-07-16T08:02:07;17.20;99.90
13482;DHT22;6813;60.352;15.746;2023-07-16T08:04:32;17.40;99.90
13482;DHT22;6813;60.352;15.746;2023-07-16T08:06:58;17.60;99.90
13482;DHT22;6813;60.352;15.746;2023-07-16T08:09:26;17.70;99.90
13482;DHT22;6813;60.352;15.746;2023-07-16T08:11:52;17.80;99.90
13482;DHT22;6813;60.352;15.746;2023-07-16T08:14:17;17.70;99.90
13482;DHT22;6813;60.352;15.746;2023-07-16T08:16:43;17.80;99.90
13482;DHT22;6813;60.352;15.746;2023-07-16T08:19:09;17.40;99.90
13482;DHT22;6813;60.352;15.746;2023-07-16T08:21:35;17.50;99.90
13482;DHT22;6813;60.352;15.746;2023-07-16T08:24:05;17.30;99.90
13482;DHT22;6813;60.352;15.746;2023-07-16T08:26:30;17.20;99.90
13482;DHT22;6813;60.352;15.746;2023-07-16T08:28:56;17.10;99.90
13482;DHT22;6813;60.352;15.746;2023-07-16T08:31:22;17.10;99.90
13482;DHT22;6813;60.352;15.746;2023-07-16T08:33:47;17.20;99.90
13482;DHT22;6813;60.352;15.746;2023-07-16T08:36:13;17.20;99.90
13482;DHT22;6813;60.352;15.746;2023-07-16T08:38:39;17.20;99.90
13482;DHT22;6813;60.352;15.746;2023-07-16T08:41:04;17.20;99.90
13482;DHT22;6813;60.352;15.746;2023-07-16T08:43:30;17.10;99.90
13482;DHT22;6813;60.352;15.746;2023-07-16T08:45:58;17.20;99.90
13482;DHT22;6813;60.352;15.746;2023-07-16T08:48:28;17.20;99.90
13482;DHT22;6813;60.352;15.746;2023-07-16T08:50:55;17.20;99.90
13482;DHT22;6813;60.352;15.746;2023-07-16T08:53:23;17.30;99.90
13482;DHT22;6813;60.352;15.746;2023-07-16T08:55:49;17.30;99.90
13482;DHT22;6813;60.352;15.746;2023-07-16T08:58:15;17.30;99.90
13482;DHT22;6813;60.352;15.746;2023-07-16T09:00:44;17.20;99.90
13482;DHT22;6813;60.352;15.746;2023-07-16T09:03:14;17.10;99.90
13482;DHT22;6813;60.352;15.746;2023-07-16T09:05:46;17.20;99.90
13482;DHT22;6813;60.352;15.746;2023-07-16T09:08:12;17.20;99.90
13482;DHT22;6813;60.352;15.746;2023-07-16T09:10:40;17.20;99.90
13482;DHT22;6813;60.352;15.746;2023-07-16T09:13:06;17.30;99.90
13482;DHT22;6813;60.352;15.746;2023-07-16T09:15:32;17.40;99.90
13482;DHT22;6813;60.352;15.746;2023-07-16T09:18:00;17.30;99.90
13482;DHT22;6813;60.352;15.746;2023-07-16T09:20:25;17.50;99.90
13482;DHT22;6813;60.352;15.746;2023-07-16T09:22:56;17.50;99.90
13482;DHT22;6813;60.352;15.746;2023-07-16T09:25:29;17.40;99.90
13482;DHT22;6813;60.352;15.746;2023-07-16T09:27:57;17.40;99.90
13482;DHT22;6813;60.352;15.746;2023-07-16T09:30:23;17.40;99.90
13482;DHT22;6813;60.352;15.746;2023-07-16T09:32:48;17.50;99.90
13482;DHT22;6813;60.352;15.746;2023-07-16T09:35:16;17.50;99.90
13482;DHT22;6813;60.352;15.746;2023-07-16T09:37:42;17.60;99.90
13482;DHT22;6813;60.352;15.746;2023-07-16T09:40:10;17.50;99.90
13482;DHT22;6813;60.352;15.746;2023-07-16T09:42:41;17.40;99.90
13482;DHT22;6813;60.352;15.746;2023-07-16T09:45:08;17.40;99.90
13482;DHT22;6813;60.352;15.746;2023-07-16T09:47:37;17.40;99.90
13482;DHT22;6813;60.352;15.746;2023-07-16T09:50:03;17.40;99.90
13482;DHT22;6813;60.352;15.746;2023-07-16T09:52:32;17.40;99.90
13482;DHT22;6813;60.352;15.746;2023-07-16T09:55:01;17.40;99.90
13482;DHT22;6813;60.352;15.746;2023-07-16T09:57:30;17.40;99.90
13482;DHT22;6813;60.352;15.746;2023-07-16T10:00:01;17.40;99.90
13482;DHT22;6813;60.352;15.746;2023-07-16T10:02:33;17.40;99.90
13482;DHT22;6813;60.352;15.746;2023-07-16T10:04:59;17.30;99.90
13482;DHT22;6813;60.352;15.746;2023-07-16T10:07:25;17.30;99.90
13482;DHT22;6813;60.352;15.746;2023-07-16T10:09:56;17.30;99.90
13482;DHT22;6813;60.352;15.746;2023-07-16T10:12:26;17.30;99.90
13482;DHT22;6813;60.352;15.746;2023-07-16T10:14:53;17.30;99.90
13482;DHT22;6813;60.352;15.746;2023-07-16T10:17:23;17.30;99.90
13482;DHT22;6813;60.352;15.746;2023-07-16T10:19:59;17.30;99.90
13482;DHT22;6813;60.352;15.746;2023-07-16T10:25:08;17.40;99.90
13482;DHT22;6813;60.352;15.746;2023-07-16T10:27:34;17.60;99.90
13482;DHT22;6813;60.352;15.746;2023-07-16T10:30:01;17.60;99.90
13482;DHT22;6813;60.352;15.746;2023-07-16T10:32:32;17.50;99.90
13482;DHT22;6813;60.352;15.746;2023-07-16T10:34:58;17.30;99.90
13482;DHT22;6813;60.352;15.746;2023-07-16T10:37:25;17.40;99.90
13482;DHT22;6813;60.352;15.746;2023-07-16T10:39:53;17.40;99.90
13482;DHT22;6813;60.352;15.746;2023-07-16T10:42:21;17.40;99.90
13482;DHT22;6813;60.352;15.746;2023-07-16T10:44:52;17.30;99.90
13482;DHT22;6813;60.352;15.746;2023-07-16T10:47:23;17.30;99.90
13482;DHT22;6813;60.352;15.746;2023-07-16T10:49:50;17.30;99.90
13482;DHT22;6813;60.352;15.746;2023-07-16T10:52:18;17.20;99.90
13482;DHT22;6813;60.352;15.746;2023-07-16T10:54:43;17.30;99.90
13482;DHT22;6813;60.352;15.746;2023-07-16T10:57:11;17.40;99.90
13482;DHT22;6813;60.352;15.746;2023-07-16T10:59:38;17.40;99.90
13482;DHT22;6813;60.352;15.746;2023-07-16T11:02:08;17.50;99.90
13482;DHT22;6813;60.352;15.746;2023-07-16T11:04:36;17.60;99.90
13482;DHT22;6813;60.352;15.746;2023-07-16T11:07:06;17.80;99.90
13482;DHT22;6813;60.352;15.746;2023-07-16T11:09:32;18.00;99.90
13482;DHT22;6813;60.352;15.746;2023-07-16T11:12:09;18.00;99.90
13482;DHT22;6813;60.352;15.746;2023-07-16T11:14:36;18.00;99.90
13482;DHT22;6813;60.352;15.746;2023-07-16T11:17:08;18.10;99.90
13482;DHT22;6813;60.352;15.746;2023-07-16T11:19:35;18.10;99.90
13482;DHT22;6813;60.352;15.746;2023-07-16T11:22:03;18.20;99.90
13482;DHT22;6813;60.352;15.746;2023-07-16T11:24:35;18.30;99.90
13482;DHT22;6813;60.352;15.746;2023-07-16T11:27:01;18.60;99.90
13482;DHT22;6813;60.352;15.746;2023-07-16T11:29:34;18.80;99.90
13482;DHT22;6813;60.352;15.746;2023-07-16T11:32:02;19.00;99.90
13482;DHT22;6813;60.352;15.746;2023-07-16T11:34:29;19.20;99.90
13482;DHT22;6813;60.352;15.746;2023-07-16T11:36:55;19.40;99.90
13482;DHT22;6813;60.352;15.746;2023-07-16T11:39:21;19.40;99.90
13482;DHT22;6813;60.352;15.746;2023-07-16T11:41:56;19.60;99.90
13482;DHT22;6813;60.352;15.746;2023-07-16T11:44:32;19.70;99.90
13482;DHT22;6813;60.352;15.746;2023-07-16T11:47:00;19.70;99.90
13482;DHT22;6813;60.352;15.746;2023-07-16T11:49:25;19.40;99.90
13482;DHT22;6813;60.352;15.746;2023-07-16T11:51:51;19.60;99.90
13482;DHT22;6813;60.352;15.746;2023-07-16T11:54:17;19.40;99.90
13482;DHT22;6813;60.352;15.746;2023-07-16T11:56:44;19.40;99.90
13482;DHT22;6813;60.352;15.746;2023-07-16T11:59:15;19.40;99.90
13482;DHT22;6813;60.352;15.746;2023-07-16T12:01:42;19.40;99.90
13482;DHT22;6813;60.352;15.746;2023-07-16T12:04:07;19.70;99.90
13482;DHT22;6813;60.352;15.746;2023-07-16T12:06:33;19.80;99.90
13482;DHT22;6813;60.352;15.746;2023-07-16T12:08:59;19.80;99.90
13482;DHT22;6813;60.352;15.746;2023-07-16T12:11:24;19.80;99.90
13482;DHT22;6813;60.352;15.746;2023-07-16T12:13:52;20.00;99.90
13482;DHT22;6813;60.352;15.746;2023-07-16T12:16:18;20.10;99.90
13482;DHT22;6813;60.352;15.746;2023-07-16T12:18:47;20.10;99.90
13482;DHT22;6813;60.352;15.746;2023-07-16T12:21:12;20.20;99.90
13482;DHT22;6813;60.352;15.746;2023-07-16T12:23:38;20.30;99.90
13482;DHT22;6813;60.352;15.746;2023-07-16T12:26:04;20.40;99.90
13482;DHT22;6813;60.352;15.746;2023-07-16T12:28:29;20.20;99.90
13482;DHT22;6813;60.352;15.746;2023-07-16T12:30:55;20.40;99.90
13482;DHT22;6813;60.352;15.746;2023-07-16T12:33:21;20.50;99.90
13482;DHT22;6813;60.352;15.746;2023-07-16T12:35:46;20.50;99.90
13482;DHT22;6813;60.352;15.746;2023-07-16T12:38:18;20.70;99.90
13482;DHT22;6813;60.352;15.746;2023-07-16T12:40:48;20.70;99.90
13482;DHT22;6813;60.352;15.746;2023-07-16T12:43:17;20.70;99.90
13482;DHT22;6813;60.352;15.746;2023-07-16T12:45:43;20.50;99.90
13482;DHT22;6813;60.352;15.746;2023-07-16T12:48:09;20.70;99.90
13482;DHT22;6813;60.352;15.746;2023-07-16T12:50:35;20.90;99.90
13482;DHT22;6813;60.352;15.746;2023-07-16T12:53:23;20.90;99.90
13482;DHT22;6813;60.352;15.746;2023-07-16T12:55:50;20.70;99.90
13482;DHT22;6813;60.352;15.746;2023-07-16T12:58:16;20.70;99.90
13482;DHT22;6813;60.352;15.746;2023-07-16T13:00:43;20.80;99.90
13482;DHT22;6813;60.352;15.746;2023-07-16T13:03:27;20.80;99.90
13482;DHT22;6813;60.352;15.746;2023-07-16T13:05:58;20.80;99.90
13482;DHT22;6813;60.352;15.746;2023-07-16T13:08:24;20.50;99.90
13482;DHT22;6813;60.352;15.746;2023-07-16T13:10:50;20.60;99.90
13482;DHT22;6813;60.352;15.746;2023-07-16T13:13:15;20.80;99.90
13482;DHT22;6813;60.352;15.746;2023-07-16T13:15:41;21.00;99.90
13482;DHT22;6813;60.352;15.746;2023-07-16T13:18:09;21.20;99.90
13482;DHT22;6813;60.352;15.746;2023-07-16T13:20:55;21.30;99.90
13482;DHT22;6813;60.352;15.746;2023-07-16T13:23:20;21.60;99.90
13482;DHT22;6813;60.352;15.746;2023-07-16T13:25:55;21.50;99.90
13482;DHT22;6813;60.352;15.746;2023-07-16T13:28:21;21.00;99.90
13482;DHT22;6813;60.352;15.746;2023-07-16T13:30:49;20.60;99.90
13482;DHT22;6813;60.352;15.746;2023-07-16T13:33:37;20.60;99.90
13482;DHT22;6813;60.352;15.746;2023-07-16T13:36:05;20.60;99.90
13482;DHT22;6813;60.352;15.746;2023-07-16T13:38:36;20.70;99.90
13482;DHT22;6813;60.352;15.746;2023-07-16T13:41:02;21.00;99.90
13482;DHT22;6813;60.352;15.746;2023-07-16T13:43:28;21.10;99.90
13482;DHT22;6813;60.352;15.746;2023-07-16T13:45:53;21.00;99.90
13482;DHT22;6813;60.352;15.746;2023-07-16T13:48:19;21.10;99.90
13482;DHT22;6813;60.352;15.746;2023-07-16T13:50:45;21.20;99.90
13482;DHT22;6813;60.352;15.746;2023-07-16T13:53:11;21.20;99.90
13482;DHT22;6813;60.352;15.746;2023-07-16T13:55:37;20.80;99.90
13482;DHT22;6813;60.352;15.746;2023-07-16T13:58:11;20.80;99.90
13482;DHT22;6813;60.352;15.746;2023-07-16T14:00:37;20.90;99.90
13482;DHT22;6813;60.352;15.746;2023-07-16T14:03:08;20.80;99.90
13482;DHT22;6813;60.352;15.746;2023-07-16T14:05:33;20.70;99.90
13482;DHT22;6813;60.352;15.746;2023-07-16T14:08:05;20.80;99.90
13482;DHT22;6813;60.352;15.746;2023-07-16T14:10:31;20.90;99.90
13482;DHT22;6813;60.352;15.746;2023-07-16T14:12:56;21.10;99.90
13482;DHT22;6813;60.352;15.746;2023-07-16T14:15:23;21.30;99.90
13482;DHT22;6813;60.352;15.746;2023-07-16T14:17:48;21.20;99.90
13482;DHT22;6813;60.352;15.746;2023-07-16T14:20:15;21.40;99.90
13482;DHT22;6813;60.352;15.746;2023-07-16T14:22:52;21.50;99.90
13482;DHT22;6813;60.352;15.746;2023-07-16T14:25:18;21.60;99.90
13482;DHT22;6813;60.352;15.746;2023-07-16T14:27:43;21.70;99.90
13482;DHT22;6813;60.352;15.746;2023-07-16T14:30:09;21.80;99.90
13482;DHT22;6813;60.352;15.746;2023-07-16T14:32:36;21.90;99.90
13482;DHT22;6813;60.352;15.746;2023-07-16T14:35:02;21.60;99.90
13482;DHT22;6813;60.352;15.746;2023-07-16T14:37:29;21.40;99.90
13482;DHT22;6813;60.352;15.746;2023-07-16T14:39:55;21.50;99.90
13482;DHT22;6813;60.352;15.746;2023-07-16T14:42:20;21.60;99.90
13482;DHT22;6813;60.352;15.746;2023-07-16T14:44:46;21.60;99.90
13482;DHT22;6813;60.352;15.746;2023-07-16T14:47:12;21.40;99.90
13482;DHT22;6813;60.352;15.746;2023-07-16T14:49:38;21.30;99.90
13482;DHT22;6813;60.352;15.746;2023-07-16T14:52:04;21.40;99.90
13482;DHT22;6813;60.352;15.746;2023-07-16T14:54:30;21.20;99.90
13482;DHT22;6813;60.352;15.746;2023-07-16T14:56:55;21.20;99.90
13482;DHT22;6813;60.352;15.746;2023-07-16T14:59:24;21.10;99.90
13482;DHT22;6813;60.352;15.746;2023-07-16T15:01:50;20.90;99.90
13482;DHT22;6813;60.352;15.746;2023-07-16T15:04:16;20.90;99.90
13482;DHT22;6813;60.352;15.746;2023-07-16T15:06:41;21.00;99.90
13482;DHT22;6813;60.352;15.746;2023-07-16T15:09:07;21.20;99.90
13482;DHT22;6813;60.352;15.746;2023-07-16T15:11:33;21.40;99.90
13482;DHT22;6813;60.352;15.746;2023-07-16T15:13:59;21.30;99.90
13482;DHT22;6813;60.352;15.746;2023-07-16T15:16:25;20.90;99.90
13482;DHT22;6813;60.352;15.746;2023-07-16T15:18:51;20.80;99.90
13482;DHT22;6813;60.352;15.746;2023-07-16T15:21:16;20.60;99.90
13482;DHT22;6813;60.352;15.746;2023-07-16T15:23:43;20.70;99.90
13482;DHT22;6813;60.352;15.746;2023-07-16T15:26:10;20.80;99.90
13482;DHT22;6813;60.352;15.746;2023-07-16T15:28:37;20.80;99.90
13482;DHT22;6813;60.352;15.746;2023-07-16T15:31:04;20.90;99.90
13482;DHT22;6813;60.352;15.746;2023-07-16T15:33:30;21.10;99.90
13482;DHT22;6813;60.352;15.746;2023-07-16T15:35:56;21.20;99.90
13482;DHT22;6813;60.352;15.746;2023-07-16T15:38:22;21.50;99.90